OIIE/IKA METAR and TAF weather

Enter ICAO airport designator
Station Type Date Time Source
OIIE METAR 2020/07/15 08:00 UTC NOAA

OIIE 150800Z 23006KT 9999 FEW040 33/09 Q1011


Station Type Date Time Source
OIIE Decoded METAR 2020/07/15 08:00 UTC NOAA

Station name not available
Jul 15, 2020 - 04:00 AM EDT / 2020.07.15 0800 UTC
Wind: from the SW (230 degrees) at 7 MPH (6 KT):0
Visibility: greater than 7 mile(s):0
Sky conditions: mostly clear
Temperature: 91 F (33 C)
Dew Point: 48 F (9 C)
Relative Humidity: 22%
Pressure (altimeter): 29.85 in. Hg (1011 hPa)
ob: OIIE 150800Z 23006KT 9999 FEW040 33/09 Q1011
cycle: 8

Station Type Date Time Source
OIIE TAF 2020/07/15 06:00 UTC NOAA

TAF OIIE 150550Z 1506/1612 30008KT 8000 FEW035 SCT100
TEMPO 1509/1515 30018KT FEW035CB SCT040 SCT090
TEMPO 1521/1606 32018KT
TEMPO 1612/1612 FEW035CB SCT040 SCT090

Example: see airport list